sensor_id;sensor_type;location;lat;lon;timestamp;pressure;altitude;pressure_sealevel;temperature;humidity
10510;BME280;5303;53.266;10.410;2023-05-14T00:01:11;101793.25;;;11.85;61.00
10510;BME280;5303;53.266;10.410;2023-05-14T00:03:36;101796.69;;;11.77;62.04
10510;BME280;5303;53.266;10.410;2023-05-14T00:06:04;101804.56;;;11.68;62.30
10510;BME280;5303;53.266;10.410;2023-05-14T00:08:29;101813.50;;;11.79;62.49
10510;BME280;5303;53.266;10.410;2023-05-14T00:10:54;101827.66;;;11.86;62.69
10510;BME280;5303;53.266;10.410;2023-05-14T00:13:20;101809.84;;;11.70;62.85
10510;BME280;5303;53.266;10.410;2023-05-14T00:15:45;101820.34;;;11.62;63.02
10510;BME280;5303;53.266;10.410;2023-05-14T00:18:10;101813.25;;;11.55;63.42
10510;BME280;5303;53.266;10.410;2023-05-14T00:20:36;101810.56;;;11.52;63.90
10510;BME280;5303;53.266;10.410;2023-05-14T00:23:01;101806.16;;;11.49;64.29
10510;BME280;5303;53.266;10.410;2023-05-14T00:25:27;101806.16;;;11.49;64.83
10510;BME280;5303;53.266;10.410;2023-05-14T00:27:52;101801.72;;;11.48;65.36
10510;BME280;5303;53.266;10.410;2023-05-14T00:30:18;101792.91;;;11.45;65.46
10510;BME280;5303;53.266;10.410;2023-05-14T00:32:43;101795.50;;;11.40;65.04
10510;BME280;5303;53.266;10.410;2023-05-14T00:35:08;101791.88;;;11.32;64.87
10510;BME280;5303;53.266;10.410;2023-05-14T00:37:33;101792.75;;;11.28;65.33
10510;BME280;5303;53.266;10.410;2023-05-14T00:40:00;101784.72;;;11.19;65.71
10510;BME280;5303;53.266;10.410;2023-05-14T00:42:25;101785.53;;;11.13;66.15
10510;BME280;5303;53.266;10.410;2023-05-14T00:44:51;101789.00;;;11.08;67.07
10510;BME280;5303;53.266;10.410;2023-05-14T00:47:18;101788.06;;;11.03;66.90
10510;BME280;5303;53.266;10.410;2023-05-14T00:49:44;101783.63;;;11.00;67.36
10510;BME280;5303;53.266;10.410;2023-05-14T00:52:10;101800.34;;;10.98;68.01
10510;BME280;5303;53.266;10.410;2023-05-14T00:54:35;101790.56;;;10.90;67.88
10510;BME280;5303;53.266;10.410;2023-05-14T00:57:02;101786.16;;;10.89;68.34
10510;BME280;5303;53.266;10.410;2023-05-14T00:59:27;101786.13;;;10.83;68.64
10510;BME280;5303;53.266;10.410;2023-05-14T01:01:53;101782.53;;;10.78;68.55
10510;BME280;5303;53.266;10.410;2023-05-14T01:04:18;101786.03;;;10.77;69.16
10510;BME280;5303;53.266;10.410;2023-05-14T01:06:49;101780.72;;;10.74;69.42
10510;BME280;5303;53.266;10.410;2023-05-14T01:09:22;101773.63;;;10.70;69.67
10510;BME280;5303;53.266;10.410;2023-05-14T01:12:07;101779.75;;;10.67;70.00
10510;BME280;5303;53.266;10.410;2023-05-14T01:17:15;101781.41;;;10.61;70.54
10510;BME280;5303;53.266;10.410;2023-05-14T01:19:45;101785.78;;;10.56;70.00
10510;BME280;5303;53.266;10.410;2023-05-14T01:22:11;101784.81;;;10.52;69.09
10510;BME280;5303;53.266;10.410;2023-05-14T01:24:37;101780.47;;;10.53;69.49
10510;BME280;5303;53.266;10.410;2023-05-14T01:27:24;101782.22;;;10.54;69.51
10510;BME280;5303;53.266;10.410;2023-05-14T01:30:00;101783.94;;;10.50;69.32
10510;BME280;5303;53.266;10.410;2023-05-14T01:32:28;101783.03;;;10.48;69.69
10510;BME280;5303;53.266;10.410;2023-05-14T01:34:56;101786.50;;;10.43;70.30
10510;BME280;5303;53.266;10.410;2023-05-14T01:37:23;101789.03;;;10.36;70.11
10510;BME280;5303;53.266;10.410;2023-05-14T01:39:49;101786.38;;;10.33;70.21
10510;BME280;5303;53.266;10.410;2023-05-14T01:42:15;101795.09;;;10.31;70.64
10510;BME280;5303;53.266;10.410;2023-05-14T01:44:41;101790.72;;;10.31;70.45
10510;BME280;5303;53.266;10.410;2023-05-14T01:47:06;101781.03;;;10.30;70.27
10510;BME280;5303;53.266;10.410;2023-05-14T01:49:32;101792.44;;;10.29;70.53
10510;BME280;5303;53.266;10.410;2023-05-14T01:51:57;101783.63;;;10.27;70.97
10510;BME280;5303;53.266;10.410;2023-05-14T01:54:22;101795.91;;;10.25;71.34
10510;BME280;5303;53.266;10.410;2023-05-14T01:56:48;101790.53;;;10.21;71.25
10510;BME280;5303;53.266;10.410;2023-05-14T01:59:13;101782.56;;;10.15;71.62
10510;BME280;5303;53.266;10.410;2023-05-14T02:01:38;101778.94;;;10.08;71.23
10510;BME280;5303;53.266;10.410;2023-05-14T02:04:03;101779.75;;;10.04;71.88
10510;BME280;5303;53.266;10.410;2023-05-14T02:06:29;101777.97;;;10.01;72.47
10510;BME280;5303;53.266;10.410;2023-05-14T02:08:55;101779.66;;;9.99;72.59
10510;BME280;5303;53.266;10.410;2023-05-14T02:11:20;101776.13;;;9.96;72.75
10510;BME280;5303;53.266;10.410;2023-05-14T02:13:46;101784.00;;;9.93;72.80
10510;BME280;5303;53.266;10.410;2023-05-14T02:16:11;101767.19;;;9.86;72.75
10510;BME280;5303;53.266;10.410;2023-05-14T02:18:36;101774.09;;;9.79;71.95
10510;BME280;5303;53.266;10.410;2023-05-14T02:21:02;101768.81;;;9.79;72.68
10510;BME280;5303;53.266;10.410;2023-05-14T02:23:27;101765.28;;;9.76;73.04
10510;BME280;5303;53.266;10.410;2023-05-14T02:25:52;101768.69;;;9.70;73.04
10510;BME280;5303;53.266;10.410;2023-05-14T02:28:18;101769.44;;;9.62;72.63
10510;BME280;5303;53.266;10.410;2023-05-14T02:30:43;101765.88;;;9.60;72.03
10510;BME280;5303;53.266;10.410;2023-05-14T02:33:08;101772.78;;;9.51;71.61
10510;BME280;5303;53.266;10.410;2023-05-14T02:35:33;101768.28;;;9.46;72.41
10510;BME280;5303;53.266;10.410;2023-05-14T02:37:59;101770.78;;;9.38;72.37
10510;BME280;5303;53.266;10.410;2023-05-14T02:40:24;101768.13;;;9.35;72.51
10510;BME280;5303;53.266;10.410;2023-05-14T02:42:49;101771.63;;;9.36;73.17
10510;BME280;5303;53.266;10.410;2023-05-14T02:45:15;101770.78;;;9.37;73.59
10510;BME280;5303;53.266;10.410;2023-05-14T02:47:40;101772.47;;;9.32;74.49
10510;BME280;5303;53.266;10.410;2023-05-14T02:50:06;101769.78;;;9.30;74.16
10510;BME280;5303;53.266;10.410;2023-05-14T02:52:32;101761.84;;;9.29;74.18
10510;BME280;5303;53.266;10.410;2023-05-14T02:54:57;101760.94;;;9.27;74.44
10510;BME280;5303;53.266;10.410;2023-05-14T02:57:22;101767.94;;;9.24;75.50
10510;BME280;5303;53.266;10.410;2023-05-14T02:59:48;101760.84;;;9.20;75.42
10510;BME280;5303;53.266;10.410;2023-05-14T03:02:14;101767.88;;;9.20;75.63
10510;BME280;5303;53.266;10.410;2023-05-14T03:04:39;101758.94;;;9.12;75.46
10510;BME280;5303;53.266;10.410;2023-05-14T03:07:05;101759.72;;;9.08;74.84
10510;BME280;5303;53.266;10.410;2023-05-14T03:09:30;101758.78;;;9.04;75.52
10510;BME280;5303;53.266;10.410;2023-05-14T03:11:55;101761.34;;;9.00;75.38
10510;BME280;5303;53.266;10.410;2023-05-14T03:14:20;101759.53;;;8.97;74.92
10510;BME280;5303;53.266;10.410;2023-05-14T03:16:46;101755.97;;;8.95;75.01
10510;BME280;5303;53.266;10.410;2023-05-14T03:19:11;101761.22;;;8.93;75.02
10510;BME280;5303;53.266;10.410;2023-05-14T03:21:36;101756.78;;;8.91;75.14
10510;BME280;5303;53.266;10.410;2023-05-14T03:24:02;101761.97;;;8.88;74.99
10510;BME280;5303;53.266;10.410;2023-05-14T03:26:27;101763.78;;;8.89;75.17
10510;BME280;5303;53.266;10.410;2023-05-14T03:28:53;101759.41;;;8.89;75.28
10510;BME280;5303;53.266;10.410;2023-05-14T03:31:19;101756.72;;;8.88;75.26
10510;BME280;5303;53.266;10.410;2023-05-14T03:33:44;101753.25;;;8.89;74.87
10510;BME280;5303;53.266;10.410;2023-05-14T03:36:09;101755.88;;;8.89;75.22
10510;BME280;5303;53.266;10.410;2023-05-14T03:38:35;101749.75;;;8.90;75.10
10510;BME280;5303;53.266;10.410;2023-05-14T03:41:00;101746.28;;;8.91;75.77
10510;BME280;5303;53.266;10.410;2023-05-14T03:43:26;101751.59;;;8.94;75.32
10510;BME280;5303;53.266;10.410;2023-05-14T03:45:51;101749.97;;;9.01;75.74
10510;BME280;5303;53.266;10.410;2023-05-14T03:48:17;101752.63;;;9.02;75.66
10510;BME280;5303;53.266;10.410;2023-05-14T03:50:43;101756.19;;;9.06;76.22
10510;BME280;5303;53.266;10.410;2023-05-14T03:53:08;101752.72;;;9.08;75.33
10510;BME280;5303;53.266;10.410;2023-05-14T03:55:34;101755.47;;;9.14;76.05
10510;BME280;5303;53.266;10.410;2023-05-14T03:58:00;101751.09;;;9.16;75.46
10510;BME280;5303;53.266;10.410;2023-05-14T04:00:26;101754.63;;;9.17;76.04
10510;BME280;5303;53.266;10.410;2023-05-14T04:02:52;101750.25;;;9.19;75.90
10510;BME280;5303;53.266;10.410;2023-05-14T04:05:17;101749.44;;;9.20;75.45
10510;BME280;5303;53.266;10.410;2023-05-14T04:07:42;101749.53;;;9.26;75.72
10510;BME280;5303;53.266;10.410;2023-05-14T04:10:09;101751.41;;;9.33;75.34
10510;BME280;5303;53.266;10.410;2023-05-14T04:12:35;101749.69;;;9.37;76.02
10510;BME280;5303;53.266;10.410;2023-05-14T04:15:00;101743.66;;;9.41;75.80
10510;BME280;5303;53.266;10.410;2023-05-14T04:17:25;101753.56;;;9.57;75.75
10510;BME280;5303;53.266;10.410;2023-05-14T04:19:50;101748.44;;;10.25;77.44
10510;BME280;5303;53.266;10.410;2023-05-14T04:22:16;101740.19;;;11.63;76.24
10510;BME280;5303;53.266;10.410;2023-05-14T04:24:41;101741.66;;;12.61;71.98
10510;BME280;5303;53.266;10.410;2023-05-14T04:27:06;101732.09;;;13.26;67.22
10510;BME280;5303;53.266;10.410;2023-05-14T04:29:32;101737.38;;;13.66;63.85
10510;BME280;5303;53.266;10.410;2023-05-14T04:31:57;101743.59;;;13.69;63.50
10510;BME280;5303;53.266;10.410;2023-05-14T04:34:22;101736.50;;;13.56;63.73
10510;BME280;5303;53.266;10.410;2023-05-14T04:36:48;101742.69;;;13.27;62.76
10510;BME280;5303;53.266;10.410;2023-05-14T04:39:13;101742.56;;;12.76;63.31
10510;BME280;5303;53.266;10.410;2023-05-14T04:41:39;101742.41;;;12.36;64.67
10510;BME280;5303;53.266;10.410;2023-05-14T04:44:04;101748.41;;;12.00;65.34
10510;BME280;5303;53.266;10.410;2023-05-14T04:46:30;101749.16;;;11.80;66.23
10510;BME280;5303;53.266;10.410;2023-05-14T04:48:55;101741.94;;;11.61;67.58
10510;BME280;5303;53.266;10.410;2023-05-14T04:51:21;101740.03;;;11.43;68.37
10510;BME280;5303;53.266;10.410;2023-05-14T04:53:47;101744.56;;;11.57;68.85
10510;BME280;5303;53.266;10.410;2023-05-14T04:56:12;101743.00;;;11.83;70.24
10510;BME280;5303;53.266;10.410;2023-05-14T04:58:37;101740.69;;;12.41;68.47
10510;BME280;5303;53.266;10.410;2023-05-14T05:01:03;101746.91;;;12.52;66.47
10510;BME280;5303;53.266;10.410;2023-05-14T05:03:29;101745.28;;;13.03;66.31
10510;BME280;5303;53.266;10.410;2023-05-14T05:05:55;101736.41;;;14.14;63.17
10510;BME280;5303;53.266;10.410;2023-05-14T05:08:20;101739.84;;;14.53;59.32
10510;BME280;5303;53.266;10.410;2023-05-14T05:10:45;101738.19;;;14.21;59.06
10510;BME280;5303;53.266;10.410;2023-05-14T05:13:11;101744.44;;;13.74;60.30
10510;BME280;5303;53.266;10.410;2023-05-14T05:15:36;101742.69;;;13.47;61.29
10510;BME280;5303;53.266;10.410;2023-05-14T05:18:01;101745.34;;;13.52;61.14
10510;BME280;5303;53.266;10.410;2023-05-14T05:20:27;101746.22;;;13.77;60.51
10510;BME280;5303;53.266;10.410;2023-05-14T05:22:52;101734.69;;;13.89;60.04
10510;BME280;5303;53.266;10.410;2023-05-14T05:25:17;101754.19;;;13.69;60.62
10510;BME280;5303;53.266;10.410;2023-05-14T05:27:43;101738.28;;;13.48;61.14
10510;BME280;5303;53.266;10.410;2023-05-14T05:30:08;101740.94;;;13.37;61.61
10510;BME280;5303;53.266;10.410;2023-05-14T05:32:34;101744.47;;;13.22;61.37
10510;BME280;5303;53.266;10.410;2023-05-14T05:35:00;101749.72;;;13.12;61.62
10510;BME280;5303;53.266;10.410;2023-05-14T05:37:25;101746.16;;;13.01;61.70
10510;BME280;5303;53.266;10.410;2023-05-14T05:39:50;101745.25;;;12.91;62.29
10510;BME280;5303;53.266;10.410;2023-05-14T05:42:16;101740.81;;;12.79;63.75
10510;BME280;5303;53.266;10.410;2023-05-14T05:44:41;101740.81;;;12.79;63.66
10510;BME280;5303;53.266;10.410;2023-05-14T05:47:06;101741.72;;;12.80;63.66
10510;BME280;5303;53.266;10.410;2023-05-14T05:49:32;101739.94;;;12.85;63.12
10510;BME280;5303;53.266;10.410;2023-05-14T05:51:57;101735.56;;;12.91;63.63
10510;BME280;5303;53.266;10.410;2023-05-14T05:54:23;101739.97;;;13.08;64.23
10510;BME280;5303;53.266;10.410;2023-05-14T05:56:51;101732.09;;;13.27;63.56
10510;BME280;5303;53.266;10.410;2023-05-14T05:59:17;101731.19;;;13.38;63.72
10510;BME280;5303;53.266;10.410;2023-05-14T06:01:42;101732.13;;;13.40;63.33
10510;BME280;5303;53.266;10.410;2023-05-14T06:04:08;101738.28;;;13.57;63.05
10510;BME280;5303;53.266;10.410;2023-05-14T06:06:33;101737.38;;;13.76;62.57
10510;BME280;5303;53.266;10.410;2023-05-14T06:08:59;101743.56;;;13.84;62.16
10510;BME280;5303;53.266;10.410;2023-05-14T06:11:26;101743.53;;;13.95;61.86
10510;BME280;5303;53.266;10.410;2023-05-14T06:13:51;101743.50;;;13.98;61.39
10510;BME280;5303;53.266;10.410;2023-05-14T06:16:17;101737.31;;;14.05;61.40
10510;BME280;5303;53.266;10.410;2023-05-14T06:18:42;101739.97;;;14.13;61.79
10510;BME280;5303;53.266;10.410;2023-05-14T06:21:07;101743.44;;;14.27;61.10
10510;BME280;5303;53.266;10.410;2023-05-14T06:23:32;101743.41;;;14.36;60.99
10510;BME280;5303;53.266;10.410;2023-05-14T06:25:58;101741.63;;;14.46;60.65
10510;BME280;5303;53.266;10.410;2023-05-14T06:28:23;101745.13;;;14.62;60.84
10510;BME280;5303;53.266;10.410;2023-05-14T06:30:49;101731.75;;;14.77;60.77
10510;BME280;5303;53.266;10.410;2023-05-14T06:33:14;101734.28;;;14.98;60.46
10510;BME280;5303;53.266;10.410;2023-05-14T06:35:39;101727.16;;;15.04;59.31
10510;BME280;5303;53.266;10.410;2023-05-14T06:38:05;101727.03;;;15.19;59.56
10510;BME280;5303;53.266;10.410;2023-05-14T06:40:30;101723.50;;;15.18;59.60
10510;BME280;5303;53.266;10.410;2023-05-14T06:42:56;101731.56;;;15.08;59.35
10510;BME280;5303;53.266;10.410;2023-05-14T06:45:21;101724.44;;;15.11;58.94
10510;BME280;5303;53.266;10.410;2023-05-14T06:47:46;101711.09;;;15.19;58.65
10510;BME280;5303;53.266;10.410;2023-05-14T06:50:12;101727.97;;;15.15;58.87
10510;BME280;5303;53.266;10.410;2023-05-14T06:52:37;101716.41;;;15.20;59.65
10510;BME280;5303;53.266;10.410;2023-05-14T06:55:02;101719.94;;;15.21;59.39
10510;BME280;5303;53.266;10.410;2023-05-14T06:57:28;101711.03;;;15.28;59.18
10510;BME280;5303;53.266;10.410;2023-05-14T06:59:53;101714.47;;;15.39;58.60
10510;BME280;5303;53.266;10.410;2023-05-14T07:02:18;101707.28;;;15.50;58.01
10510;BME280;5303;53.266;10.410;2023-05-14T07:04:43;101706.34;;;15.61;58.56
10510;BME280;5303;53.266;10.410;2023-05-14T07:07:09;101709.88;;;15.64;58.12
10510;BME280;5303;53.266;10.410;2023-05-14T07:09:37;101701.00;;;15.64;58.72
10510;BME280;5303;53.266;10.410;2023-05-14T07:12:03;101700.94;;;15.68;58.31
10510;BME280;5303;53.266;10.410;2023-05-14T07:14:28;101698.13;;;15.82;57.27
10510;BME280;5303;53.266;10.410;2023-05-14T07:16:53;101696.38;;;15.81;58.17
10510;BME280;5303;53.266;10.410;2023-05-14T07:19:19;101690.81;;;16.05;55.76
10510;BME280;5303;53.266;10.410;2023-05-14T07:21:44;101681.56;;;16.34;56.13
10510;BME280;5303;53.266;10.410;2023-05-14T07:24:09;101683.41;;;16.29;55.93
10510;BME280;5303;53.266;10.410;2023-05-14T07:26:34;101683.25;;;16.41;54.35
10510;BME280;5303;53.266;10.410;2023-05-14T07:29:00;101683.06;;;16.53;52.48
10510;BME280;5303;53.266;10.410;2023-05-14T07:31:25;101684.97;;;16.45;53.11
10510;BME280;5303;53.266;10.410;2023-05-14T07:33:50;101682.31;;;16.43;53.31
10510;BME280;5303;53.266;10.410;2023-05-14T07:36:16;101672.41;;;16.56;51.42
10510;BME280;5303;53.266;10.410;2023-05-14T07:38:41;101664.91;;;16.83;48.35
10510;BME280;5303;53.266;10.410;2023-05-14T07:41:06;101664.91;;;16.83;49.57
10510;BME280;5303;53.266;10.410;2023-05-14T07:43:31;101664.06;;;16.81;49.84
10510;BME280;5303;53.266;10.410;2023-05-14T07:45:57;101664.06;;;16.81;48.71
10510;BME280;5303;53.266;10.410;2023-05-14T07:48:22;101662.19;;;16.87;48.72
10510;BME280;5303;53.266;10.410;2023-05-14T07:50:48;101663.06;;;16.88;49.43
10510;BME280;5303;53.266;10.410;2023-05-14T07:53:13;101662.03;;;16.98;48.39
10510;BME280;5303;53.266;10.410;2023-05-14T07:55:39;101661.78;;;17.12;47.21
10510;BME280;5303;53.266;10.410;2023-05-14T07:58:04;101657.41;;;17.09;46.35
10510;BME280;5303;53.266;10.410;2023-05-14T08:00:30;101657.50;;;17.03;47.45
10510;BME280;5303;53.266;10.410;2023-05-14T08:02:56;101655.81;;;16.96;47.64
10510;BME280;5303;53.266;10.410;2023-05-14T08:05:21;101650.09;;;17.20;45.38
10510;BME280;5303;53.266;10.410;2023-05-14T08:07:46;101657.19;;;17.21;46.54
10510;BME280;5303;53.266;10.410;2023-05-14T08:10:12;101651.84;;;17.21;46.91
10510;BME280;5303;53.266;10.410;2023-05-14T08:12:37;101651.63;;;17.34;43.97
10510;BME280;5303;53.266;10.410;2023-05-14T08:15:04;101654.25;;;17.37;44.90
10510;BME280;5303;53.266;10.410;2023-05-14T08:17:29;101649.50;;;17.54;45.82
10510;BME280;5303;53.266;10.410;2023-05-14T08:19:54;101652.44;;;17.88;45.54
10510;BME280;5303;53.266;10.410;2023-05-14T08:22:20;101644.72;;;17.73;46.69
10510;BME280;5303;53.266;10.410;2023-05-14T08:24:45;101649.13;;;17.75;46.35
10510;BME280;5303;53.266;10.410;2023-05-14T08:27:11;101647.88;;;17.93;46.35
10510;BME280;5303;53.266;10.410;2023-05-14T08:29:36;101647.34;;;18.19;45.74
10510;BME280;5303;53.266;10.410;2023-05-14T08:32:01;101646.38;;;18.23;44.97
10510;BME280;5303;53.266;10.410;2023-05-14T08:34:27;101643.09;;;18.51;42.99
10510;BME280;5303;53.266;10.410;2023-05-14T08:36:52;101637.56;;;18.60;44.92
10510;BME280;5303;53.266;10.410;2023-05-14T08:39:18;101638.72;;;18.47;43.15
10510;BME280;5303;53.266;10.410;2023-05-14T08:41:43;101635.34;;;18.38;42.87
10510;BME280;5303;53.266;10.410;2023-05-14T08:44:14;101629.09;;;18.78;41.90
10510;BME280;5303;53.266;10.410;2023-05-14T08:46:42;101627.81;;;18.56;43.23
10510;BME280;5303;53.266;10.410;2023-05-14T08:49:14;101633.53;;;18.79;39.39
10510;BME280;5303;53.266;10.410;2023-05-14T08:51:46;101628.06;;;18.85;39.04
10510;BME280;5303;53.266;10.410;2023-05-14T08:54:14;101624.84;;;18.69;41.39
10510;BME280;5303;53.266;10.410;2023-05-14T08:56:42;101620.03;;;18.85;40.08
10510;BME280;5303;53.266;10.410;2023-05-14T08:59:08;101629.06;;;18.80;40.28
10510;BME280;5303;53.266;10.410;2023-05-14T09:01:36;101620.34;;;18.73;40.81
10510;BME280;5303;53.266;10.410;2023-05-14T09:04:02;101617.63;;;18.75;40.18
10510;BME280;5303;53.266;10.410;2023-05-14T09:06:33;101612.16;;;18.79;41.29
10510;BME280;5303;53.266;10.410;2023-05-14T09:08:58;101609.47;;;18.79;41.89
10510;BME280;5303;53.266;10.410;2023-05-14T09:11:24;101606.91;;;19.10;39.99
10510;BME280;5303;53.266;10.410;2023-05-14T09:13:49;101608.53;;;19.51;37.35
10510;BME280;5303;53.266;10.410;2023-05-14T09:16:15;101598.41;;;19.63;37.11
10510;BME280;5303;53.266;10.410;2023-05-14T09:18:43;101605.53;;;19.64;38.93
10510;BME280;5303;53.266;10.410;2023-05-14T09:21:09;101610.78;;;19.67;39.17
10510;BME280;5303;53.266;10.410;2023-05-14T09:23:34;101599.63;;;19.82;37.91
10510;BME280;5303;53.266;10.410;2023-05-14T09:26:03;101592.66;;;19.76;37.28
10510;BME280;5303;53.266;10.410;2023-05-14T09:28:29;101597.97;;;19.78;36.75
10510;BME280;5303;53.266;10.410;2023-05-14T09:30:54;101588.97;;;19.80;37.95
10510;BME280;5303;53.266;10.410;2023-05-14T09:33:26;101585.59;;;19.74;35.74
10510;BME280;5303;53.266;10.410;2023-05-14T09:35:58;101582.25;;;19.97;37.72
10510;BME280;5303;53.266;10.410;2023-05-14T09:38:28;101579.25;;;20.07;36.20
10510;BME280;5303;53.266;10.410;2023-05-14T09:40:54;101579.06;;;20.13;36.20
10510;BME280;5303;53.266;10.410;2023-05-14T09:43:19;101575.31;;;20.19;35.31
10510;BME280;5303;53.266;10.410;2023-05-14T09:45:45;101572.50;;;20.24;34.88
10510;BME280;5303;53.266;10.410;2023-05-14T09:48:10;101569.94;;;20.49;33.52
10510;BME280;5303;53.266;10.410;2023-05-14T09:50:42;101568.69;;;20.60;33.14
10510;BME280;5303;53.266;10.410;2023-05-14T09:53:08;101574.25;;;20.54;33.68
10510;BME280;5303;53.266;10.410;2023-05-14T09:55:35;101569.09;;;20.19;35.00
10510;BME280;5303;53.266;10.410;2023-05-14T09:58:00;101566.13;;;20.28;33.47
10510;BME280;5303;53.266;10.410;2023-05-14T10:00:26;101567.28;;;20.49;33.79
10510;BME280;5303;53.266;10.410;2023-05-14T10:02:52;101568.91;;;20.54;34.30
10510;BME280;5303;53.266;10.410;2023-05-14T10:05:20;101557.47;;;20.76;32.90
10510;BME280;5303;53.266;10.410;2023-05-14T10:07:48;101553.41;;;20.62;33.79
10510;BME280;5303;53.266;10.410;2023-05-14T10:10:18;101565.47;;;20.49;33.49
10510;BME280;5303;53.266;10.410;2023-05-14T10:12:58;101551.13;;;20.50;32.37
10510;BME280;5303;53.266;10.410;2023-05-14T10:15:48;101553.38;;;20.64;33.34
10510;BME280;5303;53.266;10.410;2023-05-14T10:18:18;101552.19;;;20.99;32.28
10510;BME280;5303;53.266;10.410;2023-05-14T10:20:49;101554.97;;;20.96;33.61
10510;BME280;5303;53.266;10.410;2023-05-14T10:23:17;101555.38;;;21.10;32.37
10510;BME280;5303;53.266;10.410;2023-05-14T10:25:43;101554.00;;;21.23;32.09
10510;BME280;5303;53.266;10.410;2023-05-14T10:28:08;101558.44;;;21.26;31.34
10510;BME280;5303;53.266;10.410;2023-05-14T10:30:34;101543.31;;;21.48;30.81
10510;BME280;5303;53.266;10.410;2023-05-14T10:33:08;101552.09;;;21.52;32.69
10510;BME280;5303;53.266;10.410;2023-05-14T10:36:03;101545.47;;;21.62;30.48
10510;BME280;5303;53.266;10.410;2023-05-14T10:38:31;101542.25;;;21.76;32.50
10510;BME280;5303;53.266;10.410;2023-05-14T10:41:01;101532.56;;;21.48;32.88
10510;BME280;5303;53.266;10.410;2023-05-14T10:43:27;101546.38;;;21.38;32.92
10510;BME280;5303;53.266;10.410;2023-05-14T10:45:56;101537.69;;;21.54;30.92
10510;BME280;5303;53.266;10.410;2023-05-14T10:48:23;101532.97;;;21.38;30.49
10510;BME280;5303;53.266;10.410;2023-05-14T10:50:52;101519.97;;;21.25;30.69
10510;BME280;5303;53.266;10.410;2023-05-14T10:53:18;101534.28;;;20.99;31.96
10510;BME280;5303;53.266;10.410;2023-05-14T10:55:43;101526.59;;;20.89;33.13
10510;BME280;5303;53.266;10.410;2023-05-14T10:58:10;101524.75;;;20.91;32.12
10510;BME280;5303;53.266;10.410;2023-05-14T11:00:36;101527.75;;;20.55;32.42
10510;BME280;5303;53.266;10.410;2023-05-14T11:03:04;101527.63;;;20.58;32.44
10510;BME280;5303;53.266;10.410;2023-05-14T11:05:30;101525.47;;;20.41;33.17
10510;BME280;5303;53.266;10.410;2023-05-14T11:07:56;101518.00;;;20.25;33.95
10510;BME280;5303;53.266;10.410;2023-05-14T11:10:22;101520.53;;;20.57;33.09
10510;BME280;5303;53.266;10.410;2023-05-14T11:12:52;101519.78;;;20.54;31.75
10510;BME280;5303;53.266;10.410;2023-05-14T11:15:20;101507.69;;;20.39;33.15
10510;BME280;5303;53.266;10.410;2023-05-14T11:17:47;101513.63;;;20.21;33.33
10510;BME280;5303;53.266;10.410;2023-05-14T11:20:12;101506.25;;;20.29;32.85
10510;BME280;5303;53.266;10.410;2023-05-14T11:22:40;101520.22;;;20.10;32.85
10510;BME280;5303;53.266;10.410;2023-05-14T11:25:07;101517.78;;;20.03;34.10
10510;BME280;5303;53.266;10.410;2023-05-14T11:27:35;101510.53;;;20.06;34.34
10510;BME280;5303;53.266;10.410;2023-05-14T11:30:01;101514.31;;;19.99;34.89
10510;BME280;5303;53.266;10.410;2023-05-14T11:32:26;101510.38;;;20.11;34.99
10510;BME280;5303;53.266;10.410;2023-05-14T11:34:51;101506.28;;;19.99;35.00
10510;BME280;5303;53.266;10.410;2023-05-14T11:37:17;101505.81;;;20.14;35.11
10510;BME280;5303;53.266;10.410;2023-05-14T11:39:53;101500.91;;;19.99;33.59
10510;BME280;5303;53.266;10.410;2023-05-14T11:42:20;101503.25;;;20.10;34.33
10510;BME280;5303;53.266;10.410;2023-05-14T11:44:47;101504.94;;;20.14;33.21
10510;BME280;5303;53.266;10.410;2023-05-14T11:47:14;101498.78;;;20.10;34.22
10510;BME280;5303;53.266;10.410;2023-05-14T11:49:39;101501.56;;;20.07;34.88
10510;BME280;5303;53.266;10.410;2023-05-14T11:52:07;101502.59;;;20.03;34.65
10510;BME280;5303;53.266;10.410;2023-05-14T11:54:33;101498.25;;;19.99;34.29
10510;BME280;5303;53.266;10.410;2023-05-14T11:57:01;101499.28;;;19.95;36.86
10510;BME280;5303;53.266;10.410;2023-05-14T11:59:27;101494.78;;;19.96;35.19
10510;BME280;5303;53.266;10.410;2023-05-14T12:01:54;101487.81;;;19.90;35.93
10510;BME280;5303;53.266;10.410;2023-05-14T12:04:20;101490.41;;;19.93;35.46
10510;BME280;5303;53.266;10.410;2023-05-14T12:06:50;101492.16;;;19.94;35.93
10510;BME280;5303;53.266;10.410;2023-05-14T12:09:19;101488.19;;;20.07;35.90
10510;BME280;5303;53.266;10.410;2023-05-14T12:11:46;101481.78;;;20.11;33.82
10510;BME280;5303;53.266;10.410;2023-05-14T12:14:18;101483.75;;;20.06;33.81
10510;BME280;5303;53.266;10.410;2023-05-14T12:16:45;101476.94;;;20.23;33.52
10510;BME280;5303;53.266;10.410;2023-05-14T12:19:13;101476.75;;;20.29;33.22
10510;BME280;5303;53.266;10.410;2023-05-14T12:21:38;101481.66;;;20.44;34.38
10510;BME280;5303;53.266;10.410;2023-05-14T12:24:08;101483.13;;;20.54;34.47
10510;BME280;5303;53.266;10.410;2023-05-14T12:26:34;101476.75;;;20.57;34.44
10510;BME280;5303;53.266;10.410;2023-05-14T12:29:01;101480.25;;;20.59;34.82
10510;BME280;5303;53.266;10.410;2023-05-14T12:31:31;101471.66;;;20.49;36.44
10510;BME280;5303;53.266;10.410;2023-05-14T12:33:57;101472.09;;;20.62;34.49
10510;BME280;5303;53.266;10.410;2023-05-14T12:36:22;101464.53;;;20.75;35.11
10510;BME280;5303;53.266;10.410;2023-05-14T12:38:49;101464.22;;;20.57;35.36
10510;BME280;5303;53.266;10.410;2023-05-14T12:41:14;101460.44;;;20.64;34.60
10510;BME280;5303;53.266;10.410;2023-05-14T12:43:42;101464.94;;;20.62;34.79
10510;BME280;5303;53.266;10.410;2023-05-14T12:46:07;101458.50;;;20.68;34.06
10510;BME280;5303;53.266;10.410;2023-05-14T12:48:33;101453.03;;;20.71;33.82
10510;BME280;5303;53.266;10.410;2023-05-14T12:50:58;101451.31;;;20.93;33.24